createdAt,value
2018-05-11T00:00:26.799Z,1010.03
2018-05-11T00:01:26.798Z,1010.04
2018-05-11T00:02:26.797Z,1010.05
2018-05-11T00:03:26.794Z,1010.05
2018-05-11T00:04:26.792Z,1010.09
2018-05-11T00:05:26.790Z,1010.03
2018-05-11T00:06:26.791Z,1010.06
2018-05-11T00:07:26.788Z,1010.03
2018-05-11T00:08:26.785Z,1010.04
2018-05-11T00:09:26.785Z,1010.02
2018-05-11T00:10:26.782Z,1010.06
2018-05-11T00:11:26.781Z,1009.98
2018-05-11T00:12:26.822Z,1010.04
2018-05-11T00:13:26.778Z,1010.05
2018-05-11T00:14:26.775Z,1010.04
2018-05-11T00:15:26.774Z,1010.04
2018-05-11T00:16:26.772Z,1010.05
2018-05-11T00:17:26.778Z,1010.02
2018-05-11T00:18:26.836Z,1010.00
2018-05-11T00:19:26.767Z,1010.02
2018-05-11T00:20:26.764Z,1010.04
2018-05-11T00:21:26.762Z,1010.06
2018-05-11T00:22:26.765Z,1010.04
2018-05-11T00:23:26.776Z,1010.03
2018-05-11T00:24:26.757Z,1010.07
2018-05-11T00:25:26.760Z,1010.06
2018-05-11T00:26:26.756Z,1010.05
2018-05-11T00:27:26.754Z,1010.07
2018-05-11T00:28:26.751Z,1010.06
2018-05-11T00:29:26.750Z,1010.05
2018-05-11T00:30:26.747Z,1010.07
2018-05-11T00:31:26.746Z,1010.06
2018-05-11T00:32:26.744Z,1010.08
2018-05-11T00:33:26.742Z,1010.06
2018-05-11T00:34:26.740Z,1010.08
2018-05-11T00:35:26.738Z,1010.06
2018-05-11T00:36:26.736Z,1010.06
2018-05-11T00:37:26.735Z,1010.05
2018-05-11T00:38:26.733Z,1010.07
2018-05-11T00:39:26.732Z,1010.02
2018-05-11T00:40:26.729Z,1010.08
2018-05-11T00:41:26.729Z,1010.06
2018-05-11T00:42:26.726Z,1010.09
2018-05-11T00:43:26.725Z,1010.07
2018-05-11T00:44:26.722Z,1010.02
2018-05-11T00:45:26.720Z,1010.01
2018-05-11T00:46:26.721Z,1010.07
2018-05-11T00:47:26.717Z,1010.04
2018-05-11T00:48:26.714Z,1010.08
2018-05-11T00:49:26.712Z,1010.05
2018-05-11T00:50:26.712Z,1010.08
2018-05-11T00:51:26.709Z,1010.06
2018-05-11T00:52:26.707Z,1010.10
2018-05-11T00:53:26.707Z,1010.13
2018-05-11T00:54:26.703Z,1010.10
2018-05-11T00:55:26.701Z,1010.16
2018-05-11T00:56:26.698Z,1010.18
2018-05-11T00:57:26.698Z,1010.16
2018-05-11T00:58:26.696Z,1010.16
2018-05-11T00:59:26.694Z,1010.18
2018-05-11T01:00:26.691Z,1010.15
2018-05-11T01:01:26.690Z,1010.19
2018-05-11T01:02:26.688Z,1010.20
2018-05-11T01:03:26.685Z,1010.21
2018-05-11T01:04:26.684Z,1010.16
2018-05-11T01:05:26.682Z,1010.21
2018-05-11T01:06:26.680Z,1010.19
2018-05-11T01:07:26.679Z,1010.19
2018-05-11T01:08:26.676Z,1010.21
2018-05-11T01:09:26.674Z,1010.26
2018-05-11T01:10:26.672Z,1010.22
2018-05-11T01:11:26.671Z,1010.24
2018-05-11T01:12:26.668Z,1010.25
2018-05-11T01:13:26.665Z,1010.25
2018-05-11T01:14:26.664Z,1010.28
2018-05-11T01:15:26.663Z,1010.30
2018-05-11T01:16:26.662Z,1010.31
2018-05-11T01:17:26.658Z,1010.34
2018-05-11T01:18:26.656Z,1010.28
2018-05-11T01:19:26.655Z,1010.30
2018-05-11T01:20:26.652Z,1010.25
2018-05-11T01:21:26.650Z,1010.26
2018-05-11T01:22:26.649Z,1010.21
2018-05-11T01:23:26.647Z,1010.22
2018-05-11T01:24:26.644Z,1010.19
2018-05-11T01:25:26.642Z,1010.26
2018-05-11T01:26:26.641Z,1010.24
2018-05-11T01:27:26.639Z,1010.22
2018-05-11T01:28:26.634Z,1010.22
2018-05-11T01:29:26.633Z,1010.24
2018-05-11T01:30:26.632Z,1010.23
2018-05-11T01:31:26.634Z,1010.23
2018-05-11T01:32:26.628Z,1010.23
2018-05-11T01:33:26.625Z,1010.25
2018-05-11T01:34:26.624Z,1010.25
2018-05-11T01:35:26.622Z,1010.24
2018-05-11T01:36:26.619Z,1010.21
2018-05-11T01:37:26.618Z,1010.22
2018-05-11T01:38:26.615Z,1010.22
2018-05-11T01:39:26.613Z,1010.20
2018-05-11T01:40:26.611Z,1010.21
2018-05-11T01:41:26.644Z,1010.20
2018-05-11T01:42:26.608Z,1010.17
2018-05-11T01:43:26.607Z,1010.16
2018-05-11T01:44:26.602Z,1010.19
2018-05-11T01:45:26.606Z,1010.22
2018-05-11T01:46:26.598Z,1010.24
2018-05-11T01:47:26.597Z,1010.24
2018-05-11T01:48:26.594Z,1010.26
2018-05-11T01:49:26.593Z,1010.24
2018-05-11T01:50:26.595Z,1010.29
2018-05-11T01:51:26.595Z,1010.28
2018-05-11T01:52:26.588Z,1010.27
2018-05-11T01:53:26.584Z,1010.30
2018-05-11T01:54:26.582Z,1010.32
2018-05-11T01:55:26.580Z,1010.28
2018-05-11T01:56:26.577Z,1010.28
2018-05-11T01:57:26.577Z,1010.26
2018-05-11T01:58:26.574Z,1010.30
2018-05-11T01:59:26.572Z,1010.25
2018-05-11T02:00:26.573Z,1010.27
2018-05-11T02:01:26.567Z,1010.25
2018-05-11T02:02:26.565Z,1010.25
2018-05-11T02:03:26.563Z,1010.28
2018-05-11T02:04:26.560Z,1010.28
2018-05-11T02:05:26.558Z,1010.27
2018-05-11T02:06:26.556Z,1010.30
2018-05-11T02:07:26.554Z,1010.30
2018-05-11T02:08:26.551Z,1010.30
2018-05-11T02:09:26.548Z,1010.30
2018-05-11T02:10:26.548Z,1010.33
2018-05-11T02:11:26.545Z,1010.36
2018-05-11T02:12:26.542Z,1010.34
2018-05-11T02:13:26.548Z,1010.36
2018-05-11T02:14:26.539Z,1010.32
2018-05-11T02:15:26.537Z,1010.32
2018-05-11T02:16:26.533Z,1010.31
2018-05-11T02:17:26.533Z,1010.29
2018-05-11T02:18:26.530Z,1010.30
2018-05-11T02:19:26.527Z,1010.34
2018-05-11T02:20:26.523Z,1010.34
2018-05-11T02:21:26.522Z,1010.32
2018-05-11T02:22:26.520Z,1010.33
2018-05-11T02:23:26.519Z,1010.32
2018-05-11T02:24:26.514Z,1010.30
2018-05-11T02:25:26.512Z,1010.31
2018-05-11T02:26:26.511Z,1010.31
2018-05-11T02:27:26.509Z,1010.31
2018-05-11T02:28:26.506Z,1010.32
2018-05-11T02:29:26.503Z,1010.34
2018-05-11T02:30:26.503Z,1010.31
2018-05-11T02:31:26.504Z,1010.32
2018-05-11T02:32:26.498Z,1010.29
2018-05-11T02:33:26.495Z,1010.32
2018-05-11T02:34:26.493Z,1010.33
2018-05-11T02:35:26.490Z,1010.30
2018-05-11T02:36:26.487Z,1010.31
2018-05-11T02:37:26.485Z,1010.33
2018-05-11T02:38:26.482Z,1010.36
2018-05-11T02:39:26.481Z,1010.32
2018-05-11T02:40:26.477Z,1010.35
2018-05-11T02:41:26.476Z,1010.31
2018-05-11T02:42:26.474Z,1010.29
2018-05-11T02:43:26.471Z,1010.28
2018-05-11T02:44:26.468Z,1010.25
2018-05-11T02:45:26.467Z,1010.24
2018-05-11T02:46:26.464Z,1010.21
2018-05-11T02:47:26.462Z,1010.22
2018-05-11T02:48:26.461Z,1010.21
2018-05-11T02:49:26.461Z,1010.22
2018-05-11T02:50:26.455Z,1010.19
2018-05-11T02:51:26.453Z,1010.21
2018-05-11T02:52:26.456Z,1010.16
2018-05-11T02:53:26.455Z,1010.17
2018-05-11T02:54:26.446Z,1010.18
2018-05-11T02:55:26.442Z,1010.20
2018-05-11T02:56:26.439Z,1010.23
2018-05-11T02:57:26.436Z,1010.22
2018-05-11T02:58:26.437Z,1010.24
2018-05-11T02:59:26.431Z,1010.25
2018-05-11T03:00:26.428Z,1010.18
2018-05-11T03:01:26.427Z,1010.17
2018-05-11T03:02:26.427Z,1010.19
2018-05-11T03:03:26.422Z,1010.17
2018-05-11T03:04:26.418Z,1010.18
2018-05-11T03:05:26.426Z,1010.20
2018-05-11T03:06:26.415Z,1010.25
2018-05-11T03:07:26.413Z,1010.28
2018-05-11T03:08:26.408Z,1010.26
2018-05-11T03:09:26.407Z,1010.26
2018-05-11T03:10:26.408Z,1010.33
2018-05-11T03:11:26.401Z,1010.29
2018-05-11T03:12:26.399Z,1010.32
2018-05-11T03:13:26.397Z,1010.33
2018-05-11T03:14:26.395Z,1010.32
2018-05-11T03:15:26.392Z,1010.30
2018-05-11T03:16:26.389Z,1010.29
2018-05-11T03:17:26.388Z,1010.29
2018-05-11T03:18:26.434Z,1010.29
2018-05-11T03:19:26.383Z,1010.29
2018-05-11T03:20:26.380Z,1010.32
2018-05-11T03:21:26.378Z,1010.33
2018-05-11T03:22:26.376Z,1010.31
2018-05-11T03:23:26.372Z,1010.36
2018-05-11T03:24:26.370Z,1010.35
2018-05-11T03:25:26.366Z,1010.34
2018-05-11T03:26:26.364Z,1010.34
2018-05-11T03:27:26.361Z,1010.37
2018-05-11T03:28:26.356Z,1010.36
2018-05-11T03:29:26.389Z,1010.37
2018-05-11T03:30:26.353Z,1010.36
2018-05-11T03:31:26.351Z,1010.38
2018-05-11T03:32:26.347Z,1010.43
2018-05-11T03:33:26.345Z,1010.40
2018-05-11T03:34:26.343Z,1010.41
2018-05-11T03:35:26.353Z,1010.47
2018-05-11T03:36:26.339Z,1010.45
2018-05-11T03:37:26.337Z,1010.49
2018-05-11T03:38:26.336Z,1010.52
2018-05-11T03:39:26.329Z,1010.56
2018-05-11T03:40:26.326Z,1010.56
2018-05-11T03:41:26.325Z,1010.56
2018-05-11T03:42:26.321Z,1010.59
2018-05-11T03:43:26.318Z,1010.60
2018-05-11T03:44:26.316Z,1010.59
2018-05-11T03:45:26.313Z,1010.64
2018-05-11T03:46:26.310Z,1010.63
2018-05-11T03:47:26.309Z,1010.59
2018-05-11T03:48:26.305Z,1010.59
2018-05-11T03:49:26.304Z,1010.56
2018-05-11T03:50:26.300Z,1010.55
2018-05-11T03:51:26.298Z,1010.58
2018-05-11T03:52:26.296Z,1010.59
2018-05-11T03:53:26.292Z,1010.63
2018-05-11T03:54:26.289Z,1010.66
2018-05-11T03:55:26.286Z,1010.66
2018-05-11T03:56:26.285Z,1010.68
2018-05-11T03:57:26.280Z,1010.73
2018-05-11T03:58:26.278Z,1010.76
2018-05-11T03:59:26.277Z,1010.72
2018-05-11T04:00:26.273Z,1010.76
2018-05-11T04:01:26.270Z,1010.74
2018-05-11T04:02:26.268Z,1010.77
2018-05-11T04:03:26.266Z,1010.73
2018-05-11T04:04:26.266Z,1010.75
2018-05-11T04:05:26.260Z,1010.77
2018-05-11T04:06:26.258Z,1010.79
2018-05-11T04:07:26.256Z,1010.77
2018-05-11T04:08:26.254Z,1010.81
2018-05-11T04:09:26.250Z,1010.81
2018-05-11T04:10:26.248Z,1010.85
2018-05-11T04:11:26.250Z,1010.80
2018-05-11T04:12:26.243Z,1010.87
2018-05-11T04:13:26.241Z,1010.85
2018-05-11T04:14:26.239Z,1010.86
2018-05-11T04:15:26.237Z,1010.88
2018-05-11T04:16:26.236Z,1010.86
2018-05-11T04:17:26.231Z,1010.85
2018-05-11T04:18:26.245Z,1010.86
2018-05-11T04:19:26.228Z,1010.89
2018-05-11T04:20:26.228Z,1010.84
2018-05-11T04:21:26.222Z,1010.86
2018-05-11T04:22:26.222Z,1010.84
2018-05-11T04:23:26.220Z,1010.82
2018-05-11T04:24:26.216Z,1010.86
2018-05-11T04:25:26.216Z,1010.85
2018-05-11T04:26:26.213Z,1010.90
2018-05-11T04:27:26.211Z,1010.85
2018-05-11T04:28:26.211Z,1010.89
2018-05-11T04:29:26.206Z,1010.83
2018-05-11T04:30:26.205Z,1010.87
2018-05-11T04:31:26.203Z,1010.90
2018-05-11T04:32:26.200Z,1010.90
2018-05-11T04:33:26.198Z,1010.91
2018-05-11T04:34:26.196Z,1010.94
2018-05-11T04:35:26.196Z,1010.97
2018-05-11T04:36:26.192Z,1010.96
2018-05-11T04:37:26.190Z,1010.95
2018-05-11T04:38:26.188Z,1010.98
2018-05-11T04:39:26.191Z,1010.96
2018-05-11T04:40:26.183Z,1010.97
2018-05-11T04:41:26.181Z,1010.93
2018-05-11T04:42:26.186Z,1010.92
2018-05-11T04:43:26.178Z,1010.96
2018-05-11T04:44:26.175Z,1010.94
2018-05-11T04:45:26.174Z,1010.99
2018-05-11T04:46:26.173Z,1011.02
2018-05-11T04:47:26.170Z,1011.03
2018-05-11T04:48:26.167Z,1011.04
2018-05-11T04:49:26.166Z,1011.03
2018-05-11T04:50:26.164Z,1011.08
2018-05-11T04:51:26.168Z,1011.09
2018-05-11T04:52:26.162Z,1011.07
2018-05-11T04:53:26.159Z,1011.14
2018-05-11T04:54:26.158Z,1011.14
2018-05-11T04:55:26.156Z,1011.14
2018-05-11T04:56:26.154Z,1011.13
2018-05-11T04:57:26.152Z,1011.18
2018-05-11T04:58:26.152Z,1011.18
2018-05-11T04:59:26.150Z,1011.20
2018-05-11T05:00:26.147Z,1011.19
2018-05-11T05:01:26.146Z,1011.15
2018-05-11T05:02:26.144Z,1011.18
2018-05-11T05:03:26.144Z,1011.18
2018-05-11T05:04:26.143Z,1011.17
2018-05-11T05:05:26.140Z,1011.18
2018-05-11T05:06:26.144Z,1011.11
2018-05-11T05:07:26.136Z,1011.12
2018-05-11T05:08:26.135Z,1011.14
2018-05-11T05:09:26.133Z,1011.15
2018-05-11T05:10:26.132Z,1011.15
2018-05-11T05:11:26.130Z,1011.15
2018-05-11T05:12:26.173Z,1011.17
2018-05-11T05:13:26.131Z,1011.20
2018-05-11T05:14:26.127Z,1011.15
2018-05-11T05:15:26.125Z,1011.18
2018-05-11T05:16:26.123Z,1011.19
2018-05-11T05:17:26.125Z,1011.19
2018-05-11T05:18:26.126Z,1011.21
2018-05-11T05:19:26.120Z,1011.20
2018-05-11T05:20:26.120Z,1011.19
2018-05-11T05:21:26.117Z,1011.22
2018-05-11T05:22:26.116Z,1011.24
2018-05-11T05:23:26.115Z,1011.25
2018-05-11T05:24:26.113Z,1011.20
2018-05-11T05:25:26.112Z,1011.26
2018-05-11T05:26:26.111Z,1011.23
2018-05-11T05:27:26.110Z,1011.23
2018-05-11T05:28:26.109Z,1011.25
2018-05-11T05:29:26.110Z,1011.22
2018-05-11T05:30:26.107Z,1011.23
2018-05-11T05:31:26.106Z,1011.25
2018-05-11T05:32:26.104Z,1011.26
2018-05-11T05:33:26.104Z,1011.26
2018-05-11T05:34:26.103Z,1011.27
2018-05-11T05:35:26.102Z,1011.25
2018-05-11T05:36:26.102Z,1011.30
2018-05-11T05:37:26.100Z,1011.30
2018-05-11T05:38:26.099Z,1011.32
2018-05-11T05:39:26.102Z,1011.33
2018-05-11T05:40:26.097Z,1011.34
2018-05-11T05:41:26.096Z,1011.28
2018-05-11T05:42:26.096Z,1011.31
2018-05-11T05:43:26.095Z,1011.31
2018-05-11T05:44:26.093Z,1011.29
2018-05-11T05:45:26.095Z,1011.30
2018-05-11T05:46:26.093Z,1011.30
2018-05-11T05:47:26.092Z,1011.37
2018-05-11T05:48:26.091Z,1011.34
2018-05-11T05:49:26.093Z,1011.40
2018-05-11T05:50:26.090Z,1011.42
2018-05-11T05:51:26.089Z,1011.44
2018-05-11T05:52:26.088Z,1011.43
2018-05-11T05:53:26.089Z,1011.41
2018-05-11T05:54:26.088Z,1011.43
2018-05-11T05:55:26.087Z,1011.43
2018-05-11T05:56:26.090Z,1011.41
2018-05-11T05:57:26.087Z,1011.42
2018-05-11T05:58:26.119Z,1011.40
2018-05-11T05:59:26.091Z,1011.35
2018-05-11T06:00:26.086Z,1011.37
2018-05-11T06:01:26.087Z,1011.37
2018-05-11T06:02:26.150Z,1011.38
2018-05-11T06:03:26.088Z,1011.41
2018-05-11T06:04:26.088Z,1011.41
2018-05-11T06:05:26.086Z,1011.42
2018-05-11T06:06:26.088Z,1011.36
2018-05-11T06:07:26.088Z,1011.39
2018-05-11T06:08:26.088Z,1011.39
2018-05-11T06:09:26.125Z,1011.40
2018-05-11T06:10:26.088Z,1011.37
2018-05-11T06:11:26.091Z,1011.41
2018-05-11T06:12:26.088Z,1011.38
2018-05-11T06:13:26.090Z,1011.36
2018-05-11T06:14:26.090Z,1011.41
2018-05-11T06:15:26.091Z,1011.36
2018-05-11T06:16:26.092Z,1011.40
2018-05-11T06:17:26.092Z,1011.36
2018-05-11T06:18:26.091Z,1011.35
2018-05-11T06:19:26.093Z,1011.37
2018-05-11T06:20:26.091Z,1011.38
2018-05-11T06:21:26.094Z,1011.41
2018-05-11T06:22:26.093Z,1011.40
2018-05-11T06:23:26.095Z,1011.43
2018-05-11T06:24:26.093Z,1011.41
2018-05-11T06:25:26.095Z,1011.43
2018-05-11T06:26:26.096Z,1011.42
2018-05-11T06:27:26.096Z,1011.45
2018-05-11T06:28:26.100Z,1011.47
2018-05-11T06:29:26.104Z,1011.46
2018-05-11T06:30:26.099Z,1011.50
2018-05-11T06:31:26.099Z,1011.48
2018-05-11T06:32:26.101Z,1011.41
2018-05-11T06:33:26.101Z,1011.42
2018-05-11T06:34:26.221Z,1011.41
2018-05-11T06:35:26.104Z,1011.39
2018-05-11T06:36:26.108Z,1011.40
2018-05-11T06:37:26.110Z,1011.37
2018-05-11T06:38:26.107Z,1011.36
2018-05-11T06:39:26.109Z,1011.38
2018-05-11T06:40:26.148Z,1011.39
2018-05-11T06:41:26.108Z,1011.36
2018-05-11T06:42:26.109Z,1011.38
2018-05-11T06:43:26.114Z,1011.38
2018-05-11T06:44:26.112Z,1011.37
2018-05-11T06:45:26.114Z,1011.36
2018-05-11T06:46:26.113Z,1011.32
2018-05-11T06:47:26.113Z,1011.36
2018-05-11T06:48:26.113Z,1011.36
2018-05-11T06:49:26.120Z,1011.36
2018-05-11T06:50:26.118Z,1011.29
2018-05-11T06:51:26.117Z,1011.31
2018-05-11T06:52:26.117Z,1011.33
2018-05-11T06:53:26.118Z,1011.33
2018-05-11T06:54:26.119Z,1011.31
2018-05-11T06:55:26.120Z,1011.32
2018-05-11T06:56:26.120Z,1011.32
2018-05-11T06:57:26.122Z,1011.33
2018-05-11T06:58:26.122Z,1011.33
2018-05-11T06:59:26.124Z,1011.32
2018-05-11T07:00:26.124Z,1011.34
2018-05-11T07:01:26.194Z,1011.31
2018-05-11T07:02:26.126Z,1011.38
2018-05-11T07:03:26.126Z,1011.40
2018-05-11T07:04:26.129Z,1011.39
2018-05-11T07:05:26.134Z,1011.39
2018-05-11T07:06:26.132Z,1011.35
2018-05-11T07:07:26.196Z,1011.38
2018-05-11T07:08:26.131Z,1011.37
2018-05-11T07:09:26.139Z,1011.34
2018-05-11T07:10:26.135Z,1011.43
2018-05-11T07:11:26.134Z,1011.38
2018-05-11T07:12:26.139Z,1011.41
2018-05-11T07:13:26.138Z,1011.38
2018-05-11T07:14:26.148Z,1011.38
2018-05-11T07:15:26.144Z,1011.36
2018-05-11T07:16:26.140Z,1011.35
2018-05-11T07:17:26.143Z,1011.33
2018-05-11T07:18:26.232Z,1011.34
2018-05-11T07:19:26.166Z,1011.35
2018-05-11T07:20:26.146Z,1011.33
2018-05-11T07:21:26.151Z,1011.34
2018-05-11T07:22:26.151Z,1011.33
2018-05-11T07:23:26.152Z,1011.32
2018-05-11T07:24:26.155Z,1011.35
2018-05-11T07:25:26.159Z,1011.39
2018-05-11T07:26:26.157Z,1011.38
2018-05-11T07:27:26.159Z,1011.39
2018-05-11T07:28:26.160Z,1011.42
2018-05-11T07:29:26.167Z,1011.44
2018-05-11T07:30:26.166Z,1011.41
2018-05-11T07:31:26.169Z,1011.42
2018-05-11T07:32:26.175Z,1011.44
2018-05-11T07:33:26.175Z,1011.48
2018-05-11T07:34:26.179Z,1011.48
2018-05-11T07:35:26.183Z,1011.55
2018-05-11T07:36:26.185Z,1011.52
2018-05-11T07:37:26.184Z,1011.49
2018-05-11T07:38:26.190Z,1011.50
2018-05-11T07:39:26.191Z,1011.51
2018-05-11T07:40:26.194Z,1011.52
2018-05-11T07:41:26.201Z,1011.49
2018-05-11T07:42:26.200Z,1011.50
2018-05-11T07:43:26.245Z,1011.44
2018-05-11T07:44:26.205Z,1011.37
2018-05-11T07:45:26.209Z,1011.34
2018-05-11T07:46:26.213Z,1011.33
2018-05-11T07:47:26.219Z,1011.35
2018-05-11T07:48:26.220Z,1011.36
2018-05-11T07:49:26.223Z,1011.56
2018-05-11T07:50:26.233Z,1012.08
2018-05-11T07:51:26.236Z,1012.23
2018-05-11T07:52:26.234Z,1012.25
2018-05-11T07:53:26.241Z,1012.24
2018-05-11T07:54:26.243Z,1012.31
2018-05-11T07:55:26.248Z,1012.27
2018-05-11T07:56:26.254Z,1012.25
2018-05-11T07:57:26.261Z,1012.26
2018-05-11T07:58:26.266Z,1012.35
2018-05-11T07:59:26.272Z,1012.35
2018-05-11T08:00:26.281Z,1012.34
2018-05-11T08:01:26.288Z,1012.43
2018-05-11T08:02:26.297Z,1012.40
2018-05-11T08:03:26.304Z,1012.47
2018-05-11T08:04:26.314Z,1012.35
2018-05-11T08:05:26.322Z,1012.36
2018-05-11T08:06:26.332Z,1012.36
2018-05-11T08:07:26.343Z,1012.43
2018-05-11T08:08:26.357Z,1011.61
2018-05-11T08:09:26.363Z,1011.50
2018-05-11T08:10:26.374Z,1011.78
2018-05-11T08:11:26.388Z,1012.27
2018-05-11T08:12:26.397Z,1012.38
2018-05-11T08:13:26.407Z,1012.37
2018-05-11T08:14:26.586Z,1012.29
2018-05-11T08:15:26.429Z,1011.52
2018-05-11T08:16:26.440Z,1011.54
2018-05-11T08:17:26.452Z,1011.45
2018-05-11T08:18:26.466Z,1011.47
2018-05-11T08:19:26.477Z,1011.42
2018-05-11T08:20:26.485Z,1011.40
2018-05-11T08:21:26.539Z,1011.39
2018-05-11T08:22:26.508Z,1011.35
2018-05-11T08:23:26.518Z,1011.37
2018-05-11T08:24:26.528Z,1011.40
2018-05-11T08:25:26.538Z,1011.42
2018-05-11T08:26:26.548Z,1011.45
2018-05-11T08:27:26.559Z,1011.38
2018-05-11T08:28:26.569Z,1011.38
2018-05-11T08:29:26.577Z,1011.42
2018-05-11T08:30:26.587Z,1011.55
2018-05-11T08:31:26.598Z,1011.43
2018-05-11T08:32:26.604Z,1011.39
2018-05-11T08:33:26.617Z,1011.38
2018-05-11T08:34:26.624Z,1011.29
2018-05-11T08:35:26.632Z,1011.27
2018-05-11T08:36:26.640Z,1011.31
2018-05-11T08:37:26.649Z,1011.26
2018-05-11T08:38:26.659Z,1011.28
2018-05-11T08:39:26.667Z,1011.33
2018-05-11T08:40:26.676Z,1011.25
2018-05-11T08:41:26.690Z,1011.24
2018-05-11T08:42:26.692Z,1011.19
2018-05-11T08:43:26.700Z,1011.18
2018-05-11T08:44:26.707Z,1011.18
2018-05-11T08:45:26.715Z,1011.14
2018-05-11T08:46:26.741Z,1011.14
2018-05-11T08:47:26.734Z,1011.14
2018-05-11T08:48:26.738Z,1011.14
2018-05-11T08:49:26.747Z,1011.13
2018-05-11T08:50:26.754Z,1011.18
2018-05-11T08:51:26.759Z,1011.19
2018-05-11T08:52:26.768Z,1011.20
2018-05-11T08:53:26.774Z,1011.25
2018-05-11T08:54:26.781Z,1011.29
2018-05-11T08:55:26.788Z,1011.37
2018-05-11T08:56:26.796Z,1011.56
2018-05-11T08:57:26.801Z,1011.57
2018-05-11T08:58:26.808Z,1011.75
2018-05-11T08:59:26.819Z,1011.43
2018-05-11T09:00:26.821Z,1011.54
2018-05-11T09:01:26.829Z,1011.26
2018-05-11T09:02:26.838Z,1011.17
2018-05-11T09:03:26.845Z,1011.13
2018-05-11T09:04:26.852Z,1011.09
2018-05-11T09:05:26.865Z,1011.07
2018-05-11T09:06:26.868Z,1011.04
2018-05-11T09:07:26.877Z,1011.03
2018-05-11T09:08:26.889Z,1011.04
2018-05-11T09:09:26.892Z,1010.99
2018-05-11T09:10:26.899Z,1011.06
2018-05-11T09:11:26.908Z,1011.06
2018-05-11T09:12:26.914Z,1011.02
2018-05-11T09:13:26.921Z,1011.02
2018-05-11T09:14:26.931Z,1011.00
2018-05-11T09:15:26.936Z,1011.01
2018-05-11T09:16:26.944Z,1011.02
2018-05-11T09:17:26.951Z,1011.03
2018-05-11T09:18:26.957Z,1010.98
2018-05-11T09:19:26.962Z,1010.96
2018-05-11T09:20:26.969Z,1010.96
2018-05-11T09:21:27.064Z,1011.01
2018-05-11T09:22:26.982Z,1010.98
2018-05-11T09:23:26.988Z,1011.01
2018-05-11T09:24:26.994Z,1011.03
2018-05-11T09:25:27.001Z,1011.04
2018-05-11T09:26:27.007Z,1011.04
2018-05-11T09:27:27.014Z,1011.00
2018-05-11T09:28:27.020Z,1011.00
2018-05-11T09:29:27.027Z,1010.99
2018-05-11T09:30:27.032Z,1010.97
2018-05-11T09:31:27.037Z,1010.98
2018-05-11T09:32:27.043Z,1010.97
2018-05-11T09:33:27.050Z,1010.94
2018-05-11T09:34:27.055Z,1010.93
2018-05-11T09:35:27.062Z,1010.96
2018-05-11T09:36:27.066Z,1010.93
2018-05-11T09:37:27.073Z,1011.00
2018-05-11T09:38:27.079Z,1010.97
2018-05-11T09:39:27.096Z,1010.98
2018-05-11T09:40:27.090Z,1010.98
2018-05-11T09:41:27.096Z,1011.00
2018-05-11T09:42:27.102Z,1010.98
2018-05-11T09:43:27.108Z,1010.95
2018-05-11T09:44:27.113Z,1010.99
2018-05-11T09:45:27.124Z,1011.01
2018-05-11T09:46:27.125Z,1011.00
2018-05-11T09:47:27.130Z,1011.07
2018-05-11T09:48:27.136Z,1011.05
2018-05-11T09:49:27.188Z,1011.11
2018-05-11T09:50:27.148Z,1011.13
2018-05-11T09:51:27.158Z,1011.53
2018-05-11T09:52:27.160Z,1011.00
2018-05-11T09:53:27.166Z,1011.05
2018-05-11T09:54:27.181Z,1011.13
2018-05-11T09:55:27.179Z,1010.97
2018-05-11T09:56:27.184Z,1010.96
2018-05-11T09:57:27.195Z,1010.95
2018-05-11T09:58:27.196Z,1011.00
2018-05-11T09:59:27.217Z,1011.02
2018-05-11T10:00:27.209Z,1011.61
2018-05-11T10:01:27.216Z,1011.69
2018-05-11T10:02:27.222Z,1011.71
2018-05-11T10:03:27.229Z,1011.12
2018-05-11T10:04:27.238Z,1011.19
2018-05-11T10:05:27.244Z,1011.67
2018-05-11T10:06:27.250Z,1011.59
2018-05-11T10:07:27.257Z,1011.14
2018-05-11T10:08:27.263Z,1011.02
2018-05-11T10:09:27.274Z,1011.01
2018-05-11T10:10:27.280Z,1011.34
2018-05-11T10:11:27.287Z,1011.57
2018-05-11T10:12:27.296Z,1011.36
2018-05-11T10:13:27.304Z,1011.07
2018-05-11T10:14:27.320Z,1010.99
2018-05-11T10:15:27.321Z,1011.06
2018-05-11T10:16:27.328Z,1011.03
2018-05-11T10:17:27.337Z,1010.94
2018-05-11T10:18:27.346Z,1011.43
2018-05-11T10:19:27.355Z,1011.05
2018-05-11T10:20:27.363Z,1010.97
2018-05-11T10:21:27.376Z,1011.51
2018-05-11T10:22:27.382Z,1011.47
2018-05-11T10:23:27.391Z,1011.00
2018-05-11T10:24:27.398Z,1010.96
2018-05-11T10:25:27.407Z,1011.26
2018-05-11T10:26:27.417Z,1011.14
2018-05-11T10:27:27.427Z,1011.39
2018-05-11T10:28:27.436Z,1010.83
2018-05-11T10:29:27.446Z,1010.87
2018-05-11T10:30:27.456Z,1010.92
2018-05-11T10:31:27.466Z,1010.80
2018-05-11T10:32:27.475Z,1010.93
2018-05-11T10:33:27.489Z,1011.19
2018-05-11T10:34:27.675Z,1011.16
2018-05-11T10:35:27.504Z,1011.27
2018-05-11T10:36:27.513Z,1011.27
2018-05-11T10:37:27.523Z,1011.29
2018-05-11T10:38:27.534Z,1011.30
2018-05-11T10:39:27.544Z,1010.86
2018-05-11T10:40:27.554Z,1010.80
2018-05-11T10:41:27.564Z,1011.17
2018-05-11T10:42:27.575Z,1011.12
2018-05-11T10:43:27.591Z,1011.13
2018-05-11T10:44:27.594Z,1011.13
2018-05-11T10:45:27.605Z,1011.13
2018-05-11T10:46:27.616Z,1011.17
2018-05-11T10:47:27.627Z,1011.14
2018-05-11T10:48:27.734Z,1011.11
2018-05-11T10:49:27.647Z,1011.14
2018-05-11T10:50:27.659Z,1011.11
2018-05-11T10:51:27.669Z,1011.09
2018-05-11T10:52:27.679Z,1011.09
2018-05-11T10:53:27.691Z,1011.08
2018-05-11T10:54:27.701Z,1011.04
2018-05-11T10:55:27.713Z,1011.06
2018-05-11T10:56:27.722Z,1011.07
2018-05-11T10:57:27.733Z,1011.08
2018-05-11T10:58:27.744Z,1010.88
2018-05-11T10:59:27.756Z,1010.95
2018-05-11T11:00:27.767Z,1010.98
2018-05-11T11:01:27.779Z,1010.98
2018-05-11T11:02:27.855Z,1010.96
2018-05-11T11:03:27.800Z,1010.98
2018-05-11T11:04:27.811Z,1010.97
2018-05-11T11:05:27.824Z,1010.94
2018-05-11T11:06:27.835Z,1010.90
2018-05-11T11:07:27.845Z,1010.85
2018-05-11T11:08:27.855Z,1010.81
2018-05-11T11:09:27.868Z,1010.88
2018-05-11T11:10:27.878Z,1010.88
2018-05-11T11:11:27.889Z,1010.72
2018-05-11T11:12:27.901Z,1010.61
2018-05-11T11:13:27.914Z,1010.51
2018-05-11T11:14:27.921Z,1010.55
2018-05-11T11:15:27.932Z,1010.51
2018-05-11T11:16:27.941Z,1010.44
2018-05-11T11:17:27.952Z,1010.38
2018-05-11T11:18:27.963Z,1010.41
2018-05-11T11:19:27.974Z,1010.34
2018-05-11T11:20:27.984Z,1010.38
2018-05-11T11:21:27.993Z,1010.35
2018-05-11T11:22:28.003Z,1010.31
2018-05-11T11:23:28.013Z,1010.27
2018-05-11T11:24:28.021Z,1010.28
2018-05-11T11:25:28.032Z,1010.24
2018-05-11T11:26:28.040Z,1010.26
2018-05-11T11:27:28.050Z,1010.24
2018-05-11T11:28:28.058Z,1010.20
2018-05-11T11:29:28.066Z,1010.14
2018-05-11T11:30:28.075Z,1010.11
2018-05-11T11:31:28.082Z,1010.12
2018-05-11T11:32:28.091Z,1010.08
2018-05-11T11:33:28.113Z,1010.06
2018-05-11T11:34:28.144Z,1010.06
2018-05-11T11:35:28.117Z,1010.12
2018-05-11T11:36:28.124Z,1010.10
2018-05-11T11:37:28.130Z,1010.05
2018-05-11T11:38:28.138Z,1010.01
2018-05-11T11:39:28.145Z,1009.98
2018-05-11T11:40:28.152Z,1009.95
2018-05-11T11:41:28.167Z,1009.95
2018-05-11T11:42:28.167Z,1009.99
2018-05-11T11:43:28.174Z,1009.97
2018-05-11T11:44:28.181Z,1010.01
2018-05-11T11:45:28.188Z,1009.95
2018-05-11T11:46:28.195Z,1009.95
2018-05-11T11:47:28.242Z,1009.95
2018-05-11T11:48:28.208Z,1009.95
2018-05-11T11:49:28.213Z,1009.92
2018-05-11T11:50:28.221Z,1009.90
2018-05-11T11:51:28.231Z,1009.84
2018-05-11T11:52:28.233Z,1009.82
2018-05-11T11:53:28.240Z,1009.81
2018-05-11T11:54:28.246Z,1009.80
2018-05-11T11:55:28.253Z,1009.82
2018-05-11T11:56:28.343Z,1009.79
2018-05-11T11:57:28.264Z,1009.78
2018-05-11T11:58:28.271Z,1009.74
2018-05-11T11:59:28.277Z,1009.75
2018-05-11T12:00:28.283Z,1009.72
2018-05-11T12:01:28.287Z,1009.69
2018-05-11T12:02:28.295Z,1009.67
2018-05-11T12:03:28.302Z,1009.68
2018-05-11T12:04:28.304Z,1009.62
2018-05-11T12:05:28.311Z,1009.60